sensor_id;sensor_type;location;lat;lon;timestamp;temperature;humidity
19970;DHT22;10146;47.754;9.566;2022-10-23T00:02:15;10.20;99.90
19970;DHT22;10146;47.754;9.566;2022-10-23T00:04:40;10.20;99.90
19970;DHT22;10146;47.754;9.566;2022-10-23T00:07:06;10.20;99.90
19970;DHT22;10146;47.754;9.566;2022-10-23T00:09:31;10.20;99.90
19970;DHT22;10146;47.754;9.566;2022-10-23T00:11:57;10.20;99.90
19970;DHT22;10146;47.754;9.566;2022-10-23T00:14:23;10.20;99.90
19970;DHT22;10146;47.754;9.566;2022-10-23T00:16:49;10.10;99.90
19970;DHT22;10146;47.754;9.566;2022-10-23T00:19:15;10.20;99.90
19970;DHT22;10146;47.754;9.566;2022-10-23T00:21:41;10.20;99.90
19970;DHT22;10146;47.754;9.566;2022-10-23T00:24:07;10.20;99.90
19970;DHT22;10146;47.754;9.566;2022-10-23T00:26:33;10.10;99.90
19970;DHT22;10146;47.754;9.566;2022-10-23T00:28:58;10.10;99.90
19970;DHT22;10146;47.754;9.566;2022-10-23T00:31:24;10.10;99.90
19970;DHT22;10146;47.754;9.566;2022-10-23T00:33:51;10.10;99.90
19970;DHT22;10146;47.754;9.566;2022-10-23T00:36:18;10.10;99.90
19970;DHT22;10146;47.754;9.566;2022-10-23T00:38:44;10.10;99.90
19970;DHT22;10146;47.754;9.566;2022-10-23T00:41:15;10.10;99.90
19970;DHT22;10146;47.754;9.566;2022-10-23T00:44:07;10.10;99.90
19970;DHT22;10146;47.754;9.566;2022-10-23T00:46:34;10.00;99.90
19970;DHT22;10146;47.754;9.566;2022-10-23T00:49:01;10.00;99.90
19970;DHT22;10146;47.754;9.566;2022-10-23T00:51:30;10.00;99.90
19970;DHT22;10146;47.754;9.566;2022-10-23T00:54:01;10.10;99.90
19970;DHT22;10146;47.754;9.566;2022-10-23T00:56:27;10.10;99.90
19970;DHT22;10146;47.754;9.566;2022-10-23T00:58:52;10.00;99.90
19970;DHT22;10146;47.754;9.566;2022-10-23T01:01:21;10.00;99.90
19970;DHT22;10146;47.754;9.566;2022-10-23T01:03:48;10.10;99.90
19970;DHT22;10146;47.754;9.566;2022-10-23T01:09:21;10.20;99.90
19970;DHT22;10146;47.754;9.566;2022-10-23T01:12:11;10.20;99.90
19970;DHT22;10146;47.754;9.566;2022-10-23T01:14:58;10.10;99.90
19970;DHT22;10146;47.754;9.566;2022-10-23T01:17:44;10.00;99.90
19970;DHT22;10146;47.754;9.566;2022-10-23T01:20:31;10.00;99.90
19970;DHT22;10146;47.754;9.566;2022-10-23T01:31:52;9.90;99.90
19970;DHT22;10146;47.754;9.566;2022-10-23T01:34:25;9.90;99.90
19970;DHT22;10146;47.754;9.566;2022-10-23T01:36:53;9.90;99.90
19970;DHT22;10146;47.754;9.566;2022-10-23T01:39:33;9.90;99.90
19970;DHT22;10146;47.754;9.566;2022-10-23T01:42:15;9.90;99.90
19970;DHT22;10146;47.754;9.566;2022-10-23T01:44:49;9.80;99.90
19970;DHT22;10146;47.754;9.566;2022-10-23T01:47:18;9.80;99.90
19970;DHT22;10146;47.754;9.566;2022-10-23T01:49:46;9.70;99.90
19970;DHT22;10146;47.754;9.566;2022-10-23T01:52:15;9.70;99.90
19970;DHT22;10146;47.754;9.566;2022-10-23T01:54:43;9.70;99.90
19970;DHT22;10146;47.754;9.566;2022-10-23T01:57:13;9.80;99.90
19970;DHT22;10146;47.754;9.566;2022-10-23T01:59:46;9.70;99.90
19970;DHT22;10146;47.754;9.566;2022-10-23T02:02:15;9.70;99.90
19970;DHT22;10146;47.754;9.566;2022-10-23T02:05:07;9.60;99.90
19970;DHT22;10146;47.754;9.566;2022-10-23T02:07:34;9.60;99.90
19970;DHT22;10146;47.754;9.566;2022-10-23T02:10:03;9.50;99.90
19970;DHT22;10146;47.754;9.566;2022-10-23T02:15:49;9.50;99.90
19970;DHT22;10146;47.754;9.566;2022-10-23T02:21:12;9.60;99.90
19970;DHT22;10146;47.754;9.566;2022-10-23T02:26:26;9.60;99.90
19970;DHT22;10146;47.754;9.566;2022-10-23T02:28:56;9.60;99.90
19970;DHT22;10146;47.754;9.566;2022-10-23T02:31:23;9.60;99.90
19970;DHT22;10146;47.754;9.566;2022-10-23T02:33:49;9.60;99.90
19970;DHT22;10146;47.754;9.566;2022-10-23T02:36:15;9.60;99.90
19970;DHT22;10146;47.754;9.566;2022-10-23T02:38:44;9.60;99.90
19970;DHT22;10146;47.754;9.566;2022-10-23T02:44:01;9.60;99.90
19970;DHT22;10146;47.754;9.566;2022-10-23T02:46:30;9.60;99.90
19970;DHT22;10146;47.754;9.566;2022-10-23T02:54:50;9.50;99.90
19970;DHT22;10146;47.754;9.566;2022-10-23T02:57:28;9.50;99.90
19970;DHT22;10146;47.754;9.566;2022-10-23T03:00:01;9.50;99.90
19970;DHT22;10146;47.754;9.566;2022-10-23T03:02:36;9.40;99.90
19970;DHT22;10146;47.754;9.566;2022-10-23T03:05:06;9.40;99.90
19970;DHT22;10146;47.754;9.566;2022-10-23T03:07:33;9.40;99.90
19970;DHT22;10146;47.754;9.566;2022-10-23T03:09:59;9.50;99.90
19970;DHT22;10146;47.754;9.566;2022-10-23T03:12:24;9.40;99.90
19970;DHT22;10146;47.754;9.566;2022-10-23T03:14:50;9.40;99.90
19970;DHT22;10146;47.754;9.566;2022-10-23T03:17:16;9.40;99.90
19970;DHT22;10146;47.754;9.566;2022-10-23T03:19:41;9.30;99.90
19970;DHT22;10146;47.754;9.566;2022-10-23T03:22:07;9.30;99.90
19970;DHT22;10146;47.754;9.566;2022-10-23T03:24:33;9.30;99.90
19970;DHT22;10146;47.754;9.566;2022-10-23T03:26:59;9.20;99.90
19970;DHT22;10146;47.754;9.566;2022-10-23T03:29:24;9.20;99.90
19970;DHT22;10146;47.754;9.566;2022-10-23T03:31:50;9.20;99.90
19970;DHT22;10146;47.754;9.566;2022-10-23T03:34:15;9.20;99.90
19970;DHT22;10146;47.754;9.566;2022-10-23T03:36:41;9.10;99.90
19970;DHT22;10146;47.754;9.566;2022-10-23T03:39:07;9.10;99.90
19970;DHT22;10146;47.754;9.566;2022-10-23T03:41:32;9.10;99.90
19970;DHT22;10146;47.754;9.566;2022-10-23T03:43:58;9.10;99.90
19970;DHT22;10146;47.754;9.566;2022-10-23T03:46:24;9.10;99.90
19970;DHT22;10146;47.754;9.566;2022-10-23T03:48:49;9.10;99.90
19970;DHT22;10146;47.754;9.566;2022-10-23T03:51:15;9.10;99.90
19970;DHT22;10146;47.754;9.566;2022-10-23T03:53:40;9.10;99.90
19970;DHT22;10146;47.754;9.566;2022-10-23T03:56:06;9.10;99.90
19970;DHT22;10146;47.754;9.566;2022-10-23T03:58:31;9.10;99.90
19970;DHT22;10146;47.754;9.566;2022-10-23T04:00:57;9.10;99.90
19970;DHT22;10146;47.754;9.566;2022-10-23T04:03:23;9.00;99.90
19970;DHT22;10146;47.754;9.566;2022-10-23T04:05:49;9.00;99.90
19970;DHT22;10146;47.754;9.566;2022-10-23T04:08:14;9.00;99.90
19970;DHT22;10146;47.754;9.566;2022-10-23T04:10:40;9.10;99.90
19970;DHT22;10146;47.754;9.566;2022-10-23T04:13:05;9.00;99.90
19970;DHT22;10146;47.754;9.566;2022-10-23T04:15:31;9.00;99.90
19970;DHT22;10146;47.754;9.566;2022-10-23T04:17:56;9.00;99.90
19970;DHT22;10146;47.754;9.566;2022-10-23T04:20:22;9.00;99.90
19970;DHT22;10146;47.754;9.566;2022-10-23T04:22:48;9.00;99.90
19970;DHT22;10146;47.754;9.566;2022-10-23T04:25:13;9.00;99.90
19970;DHT22;10146;47.754;9.566;2022-10-23T04:27:40;9.00;99.90
19970;DHT22;10146;47.754;9.566;2022-10-23T04:30:06;9.00;99.90
19970;DHT22;10146;47.754;9.566;2022-10-23T04:32:32;9.00;99.90
19970;DHT22;10146;47.754;9.566;2022-10-23T04:34:58;9.00;99.90
19970;DHT22;10146;47.754;9.566;2022-10-23T04:37:23;9.00;99.90
19970;DHT22;10146;47.754;9.566;2022-10-23T04:39:49;9.20;99.90
19970;DHT22;10146;47.754;9.566;2022-10-23T04:42:15;9.10;99.90
19970;DHT22;10146;47.754;9.566;2022-10-23T04:44:40;9.00;99.90
19970;DHT22;10146;47.754;9.566;2022-10-23T04:47:06;9.00;99.90
19970;DHT22;10146;47.754;9.566;2022-10-23T04:49:31;9.10;99.90
19970;DHT22;10146;47.754;9.566;2022-10-23T04:51:57;9.20;99.90
19970;DHT22;10146;47.754;9.566;2022-10-23T04:54:23;9.20;99.90
19970;DHT22;10146;47.754;9.566;2022-10-23T04:56:48;9.20;99.90
19970;DHT22;10146;47.754;9.566;2022-10-23T04:59:14;9.10;99.90
19970;DHT22;10146;47.754;9.566;2022-10-23T05:01:39;9.10;99.90
19970;DHT22;10146;47.754;9.566;2022-10-23T05:04:05;9.10;99.90
19970;DHT22;10146;47.754;9.566;2022-10-23T05:06:30;9.00;99.90
19970;DHT22;10146;47.754;9.566;2022-10-23T05:08:56;9.00;99.90
19970;DHT22;10146;47.754;9.566;2022-10-23T05:11:21;9.10;99.90
19970;DHT22;10146;47.754;9.566;2022-10-23T05:13:47;9.10;99.90
19970;DHT22;10146;47.754;9.566;2022-10-23T05:16:36;9.10;99.90
19970;DHT22;10146;47.754;9.566;2022-10-23T05:19:02;9.10;99.90
19970;DHT22;10146;47.754;9.566;2022-10-23T05:21:31;9.10;99.90
19970;DHT22;10146;47.754;9.566;2022-10-23T05:23:58;9.10;99.90
19970;DHT22;10146;47.754;9.566;2022-10-23T05:26:24;9.20;99.90
19970;DHT22;10146;47.754;9.566;2022-10-23T05:28:50;9.10;99.90
19970;DHT22;10146;47.754;9.566;2022-10-23T05:31:16;9.00;99.90
19970;DHT22;10146;47.754;9.566;2022-10-23T05:33:44;9.00;99.90
19970;DHT22;10146;47.754;9.566;2022-10-23T05:36:11;9.00;99.90
19970;DHT22;10146;47.754;9.566;2022-10-23T05:38:37;9.00;99.90
19970;DHT22;10146;47.754;9.566;2022-10-23T05:41:02;9.00;99.90
19970;DHT22;10146;47.754;9.566;2022-10-23T05:43:28;9.00;99.90
19970;DHT22;10146;47.754;9.566;2022-10-23T05:45:56;8.90;99.90
19970;DHT22;10146;47.754;9.566;2022-10-23T05:48:22;8.90;99.90
19970;DHT22;10146;47.754;9.566;2022-10-23T05:50:47;8.90;99.90
19970;DHT22;10146;47.754;9.566;2022-10-23T05:53:13;8.80;99.90
19970;DHT22;10146;47.754;9.566;2022-10-23T05:55:39;8.90;99.90
19970;DHT22;10146;47.754;9.566;2022-10-23T05:58:04;8.80;99.90
19970;DHT22;10146;47.754;9.566;2022-10-23T06:00:30;8.90;99.90
19970;DHT22;10146;47.754;9.566;2022-10-23T06:02:59;8.90;99.90
19970;DHT22;10146;47.754;9.566;2022-10-23T06:05:25;8.90;99.90
19970;DHT22;10146;47.754;9.566;2022-10-23T06:07:50;8.90;99.90
19970;DHT22;10146;47.754;9.566;2022-10-23T06:10:16;9.00;99.90
19970;DHT22;10146;47.754;9.566;2022-10-23T06:12:42;9.00;99.90
19970;DHT22;10146;47.754;9.566;2022-10-23T06:15:07;9.00;99.90
19970;DHT22;10146;47.754;9.566;2022-10-23T06:17:33;9.00;99.90
19970;DHT22;10146;47.754;9.566;2022-10-23T06:19:59;9.10;99.90
19970;DHT22;10146;47.754;9.566;2022-10-23T06:22:28;9.10;99.90
19970;DHT22;10146;47.754;9.566;2022-10-23T06:24:53;9.10;99.90
19970;DHT22;10146;47.754;9.566;2022-10-23T06:27:19;9.20;99.90
19970;DHT22;10146;47.754;9.566;2022-10-23T06:29:44;9.20;99.90
19970;DHT22;10146;47.754;9.566;2022-10-23T06:32:10;9.20;99.90
19970;DHT22;10146;47.754;9.566;2022-10-23T06:34:36;9.20;99.90
19970;DHT22;10146;47.754;9.566;2022-10-23T06:37:01;9.30;99.90
19970;DHT22;10146;47.754;9.566;2022-10-23T06:39:27;9.40;99.90
19970;DHT22;10146;47.754;9.566;2022-10-23T06:41:52;9.40;99.90
19970;DHT22;10146;47.754;9.566;2022-10-23T06:44:18;9.40;99.90
19970;DHT22;10146;47.754;9.566;2022-10-23T06:46:44;9.40;99.90
19970;DHT22;10146;47.754;9.566;2022-10-23T06:49:14;9.50;99.90
19970;DHT22;10146;47.754;9.566;2022-10-23T06:51:40;9.50;99.90
19970;DHT22;10146;47.754;9.566;2022-10-23T06:54:07;9.60;99.90
19970;DHT22;10146;47.754;9.566;2022-10-23T06:56:33;9.60;99.90
19970;DHT22;10146;47.754;9.566;2022-10-23T06:58:59;9.60;99.90
19970;DHT22;10146;47.754;9.566;2022-10-23T07:01:25;9.60;99.90
19970;DHT22;10146;47.754;9.566;2022-10-23T07:03:51;9.70;99.90
19970;DHT22;10146;47.754;9.566;2022-10-23T07:06:16;9.80;99.90
19970;DHT22;10146;47.754;9.566;2022-10-23T07:08:42;9.80;99.90
19970;DHT22;10146;47.754;9.566;2022-10-23T07:11:09;9.80;99.90
19970;DHT22;10146;47.754;9.566;2022-10-23T07:13:36;9.90;99.90
19970;DHT22;10146;47.754;9.566;2022-10-23T07:16:13;9.90;99.90
19970;DHT22;10146;47.754;9.566;2022-10-23T07:18:40;10.00;99.90
19970;DHT22;10146;47.754;9.566;2022-10-23T07:21:06;10.10;99.90
19970;DHT22;10146;47.754;9.566;2022-10-23T07:23:31;10.10;99.90
19970;DHT22;10146;47.754;9.566;2022-10-23T07:26:17;10.20;99.90
19970;DHT22;10146;47.754;9.566;2022-10-23T07:28:44;10.30;99.90
19970;DHT22;10146;47.754;9.566;2022-10-23T07:31:11;10.40;99.90
19970;DHT22;10146;47.754;9.566;2022-10-23T07:33:37;10.40;99.90
19970;DHT22;10146;47.754;9.566;2022-10-23T07:36:04;10.40;99.90
19970;DHT22;10146;47.754;9.566;2022-10-23T07:38:30;10.50;99.90
19970;DHT22;10146;47.754;9.566;2022-10-23T07:40:57;10.50;99.90
19970;DHT22;10146;47.754;9.566;2022-10-23T07:43:23;10.50;99.90
19970;DHT22;10146;47.754;9.566;2022-10-23T07:45:50;10.60;99.90
19970;DHT22;10146;47.754;9.566;2022-10-23T07:48:16;10.70;99.90
19970;DHT22;10146;47.754;9.566;2022-10-23T07:50:42;10.80;99.90
19970;DHT22;10146;47.754;9.566;2022-10-23T07:53:20;10.90;99.90
19970;DHT22;10146;47.754;9.566;2022-10-23T07:55:56;10.90;99.90
19970;DHT22;10146;47.754;9.566;2022-10-23T07:58:23;11.00;99.90
19970;DHT22;10146;47.754;9.566;2022-10-23T08:00:59;11.00;99.90
19970;DHT22;10146;47.754;9.566;2022-10-23T08:03:27;11.10;99.90
19970;DHT22;10146;47.754;9.566;2022-10-23T08:05:53;11.20;99.90
19970;DHT22;10146;47.754;9.566;2022-10-23T08:08:20;11.20;99.90
19970;DHT22;10146;47.754;9.566;2022-10-23T08:10:47;11.30;99.90
19970;DHT22;10146;47.754;9.566;2022-10-23T08:13:13;11.30;99.90
19970;DHT22;10146;47.754;9.566;2022-10-23T08:15:40;11.40;99.90
19970;DHT22;10146;47.754;9.566;2022-10-23T08:18:06;11.50;99.90
19970;DHT22;10146;47.754;9.566;2022-10-23T08:20:36;11.60;99.90
19970;DHT22;10146;47.754;9.566;2022-10-23T08:23:02;11.70;99.90
19970;DHT22;10146;47.754;9.566;2022-10-23T08:25:27;11.80;99.90
19970;DHT22;10146;47.754;9.566;2022-10-23T08:27:53;11.80;99.90
19970;DHT22;10146;47.754;9.566;2022-10-23T08:30:19;11.80;99.90
19970;DHT22;10146;47.754;9.566;2022-10-23T08:32:44;11.90;99.90
19970;DHT22;10146;47.754;9.566;2022-10-23T08:35:10;11.90;99.90
19970;DHT22;10146;47.754;9.566;2022-10-23T08:37:35;11.90;99.90
19970;DHT22;10146;47.754;9.566;2022-10-23T08:40:01;12.00;99.90
19970;DHT22;10146;47.754;9.566;2022-10-23T08:42:27;12.10;99.90
19970;DHT22;10146;47.754;9.566;2022-10-23T08:45:05;12.20;99.90
19970;DHT22;10146;47.754;9.566;2022-10-23T08:47:43;12.20;99.90
19970;DHT22;10146;47.754;9.566;2022-10-23T08:55:45;12.40;99.90
19970;DHT22;10146;47.754;9.566;2022-10-23T09:00:42;12.50;99.90
19970;DHT22;10146;47.754;9.566;2022-10-23T09:03:10;12.60;99.90
19970;DHT22;10146;47.754;9.566;2022-10-23T09:08:26;12.70;99.90
19970;DHT22;10146;47.754;9.566;2022-10-23T09:14:41;12.90;99.90
19970;DHT22;10146;47.754;9.566;2022-10-23T09:19:33;13.10;99.90
19970;DHT22;10146;47.754;9.566;2022-10-23T09:21:59;13.20;99.90
19970;DHT22;10146;47.754;9.566;2022-10-23T09:24:25;13.30;99.90
19970;DHT22;10146;47.754;9.566;2022-10-23T09:26:56;13.40;99.90
19970;DHT22;10146;47.754;9.566;2022-10-23T09:29:33;13.50;99.90
19970;DHT22;10146;47.754;9.566;2022-10-23T09:32:05;13.60;99.90
19970;DHT22;10146;47.754;9.566;2022-10-23T09:34:33;13.70;99.90
19970;DHT22;10146;47.754;9.566;2022-10-23T09:39:45;13.80;99.90
19970;DHT22;10146;47.754;9.566;2022-10-23T09:42:21;13.90;99.90
19970;DHT22;10146;47.754;9.566;2022-10-23T09:44:49;14.00;99.90
19970;DHT22;10146;47.754;9.566;2022-10-23T09:47:18;14.00;99.90
19970;DHT22;10146;47.754;9.566;2022-10-23T09:49:50;14.20;99.90
19970;DHT22;10146;47.754;9.566;2022-10-23T09:57:31;14.60;99.90
19970;DHT22;10146;47.754;9.566;2022-10-23T10:02:53;14.70;99.90
19970;DHT22;10146;47.754;9.566;2022-10-23T10:05:51;14.90;99.90
19970;DHT22;10146;47.754;9.566;2022-10-23T10:10:50;15.10;99.90
19970;DHT22;10146;47.754;9.566;2022-10-23T10:16:18;15.10;99.90
19970;DHT22;10146;47.754;9.566;2022-10-23T10:19:35;15.20;99.90
19970;DHT22;10146;47.754;9.566;2022-10-23T10:21:55;15.30;99.90
19970;DHT22;10146;47.754;9.566;2022-10-23T10:24:29;15.40;99.90
19970;DHT22;10146;47.754;9.566;2022-10-23T10:30:04;15.60;99.90
19970;DHT22;10146;47.754;9.566;2022-10-23T10:32:40;15.70;99.90
19970;DHT22;10146;47.754;9.566;2022-10-23T10:35:30;15.80;99.90
19970;DHT22;10146;47.754;9.566;2022-10-23T10:46:27;16.10;99.90
19970;DHT22;10146;47.754;9.566;2022-10-23T10:48:58;16.10;99.90
19970;DHT22;10146;47.754;9.566;2022-10-23T10:56:39;16.30;99.90
19970;DHT22;10146;47.754;9.566;2022-10-23T10:59:30;16.40;99.90
19970;DHT22;10146;47.754;9.566;2022-10-23T11:07:40;16.80;99.90
19970;DHT22;10146;47.754;9.566;2022-10-23T11:10:16;16.80;99.90
19970;DHT22;10146;47.754;9.566;2022-10-23T11:12:43;16.90;99.90
19970;DHT22;10146;47.754;9.566;2022-10-23T11:15:15;17.00;99.90
19970;DHT22;10146;47.754;9.566;2022-10-23T11:17:49;17.00;99.90
19970;DHT22;10146;47.754;9.566;2022-10-23T11:20:27;17.10;99.90
19970;DHT22;10146;47.754;9.566;2022-10-23T11:25:52;17.20;99.90
19970;DHT22;10146;47.754;9.566;2022-10-23T11:28:44;17.30;99.90
19970;DHT22;10146;47.754;9.566;2022-10-23T11:34:50;17.20;99.90
19970;DHT22;10146;47.754;9.566;2022-10-23T11:37:21;17.20;99.90
19970;DHT22;10146;47.754;9.566;2022-10-23T11:45:25;17.20;99.90
19970;DHT22;10146;47.754;9.566;2022-10-23T11:48:04;17.10;99.90
19970;DHT22;10146;47.754;9.566;2022-10-23T11:50:32;17.10;99.90
19970;DHT22;10146;47.754;9.566;2022-10-23T11:53:01;17.00;99.90
19970;DHT22;10146;47.754;9.566;2022-10-23T11:55:30;17.00;99.90
19970;DHT22;10146;47.754;9.566;2022-10-23T12:00:51;17.10;99.90
19970;DHT22;10146;47.754;9.566;2022-10-23T12:03:23;17.10;99.90
19970;DHT22;10146;47.754;9.566;2022-10-23T12:05:58;17.20;99.90
19970;DHT22;10146;47.754;9.566;2022-10-23T12:08:27;17.10;99.90
19970;DHT22;10146;47.754;9.566;2022-10-23T12:10:53;17.20;99.90
19970;DHT22;10146;47.754;9.566;2022-10-23T12:16:05;17.10;99.90
19970;DHT22;10146;47.754;9.566;2022-10-23T12:18:32;17.00;99.90
19970;DHT22;10146;47.754;9.566;2022-10-23T12:21:01;17.00;99.90
19970;DHT22;10146;47.754;9.566;2022-10-23T12:26:21;17.10;99.90
19970;DHT22;10146;47.754;9.566;2022-10-23T12:39:52;16.90;99.90
19970;DHT22;10146;47.754;9.566;2022-10-23T12:42:36;17.00;99.90
19970;DHT22;10146;47.754;9.566;2022-10-23T12:45:18;17.00;99.90
19970;DHT22;10146;47.754;9.566;2022-10-23T12:47:46;17.00;99.90
19970;DHT22;10146;47.754;9.566;2022-10-23T12:52:50;17.20;99.90
19970;DHT22;10146;47.754;9.566;2022-10-23T12:55:16;17.20;99.90
19970;DHT22;10146;47.754;9.566;2022-10-23T12:57:42;17.20;99.90
19970;DHT22;10146;47.754;9.566;2022-10-23T13:00:13;17.30;99.90
19970;DHT22;10146;47.754;9.566;2022-10-23T13:02:39;17.40;99.90
19970;DHT22;10146;47.754;9.566;2022-10-23T13:05:07;17.60;99.90
19970;DHT22;10146;47.754;9.566;2022-10-23T13:07:37;17.70;99.90
19970;DHT22;10146;47.754;9.566;2022-10-23T13:10:14;17.90;99.90
19970;DHT22;10146;47.754;9.566;2022-10-23T13:12:43;17.90;99.90
19970;DHT22;10146;47.754;9.566;2022-10-23T13:15:16;17.90;99.90
19970;DHT22;10146;47.754;9.566;2022-10-23T13:23:09;17.70;99.90
19970;DHT22;10146;47.754;9.566;2022-10-23T13:25:37;17.50;99.90
19970;DHT22;10146;47.754;9.566;2022-10-23T13:30:36;17.30;99.90
19970;DHT22;10146;47.754;9.566;2022-10-23T13:38:47;17.00;99.90
19970;DHT22;10146;47.754;9.566;2022-10-23T13:41:23;16.90;99.90
19970;DHT22;10146;47.754;9.566;2022-10-23T13:43:48;16.90;99.90
19970;DHT22;10146;47.754;9.566;2022-10-23T13:46:15;16.90;99.90
19970;DHT22;10146;47.754;9.566;2022-10-23T13:48:41;16.90;99.90
19970;DHT22;10146;47.754;9.566;2022-10-23T13:51:26;16.80;99.90
19970;DHT22;10146;47.754;9.566;2022-10-23T13:53:53;16.90;99.90
19970;DHT22;10146;47.754;9.566;2022-10-23T13:56:21;16.90;99.90
19970;DHT22;10146;47.754;9.566;2022-10-23T13:58:47;16.80;99.90
19970;DHT22;10146;47.754;9.566;2022-10-23T14:01:28;16.80;99.90
19970;DHT22;10146;47.754;9.566;2022-10-23T14:03:56;16.80;99.90
19970;DHT22;10146;47.754;9.566;2022-10-23T14:06:22;16.70;99.90
19970;DHT22;10146;47.754;9.566;2022-10-23T14:08:47;16.60;99.90
19970;DHT22;10146;47.754;9.566;2022-10-23T14:11:15;16.70;99.90
19970;DHT22;10146;47.754;9.566;2022-10-23T14:13:41;16.70;99.90
19970;DHT22;10146;47.754;9.566;2022-10-23T14:16:09;16.80;99.90
19970;DHT22;10146;47.754;9.566;2022-10-23T14:18:35;16.70;99.90
19970;DHT22;10146;47.754;9.566;2022-10-23T14:21:02;16.70;99.90
19970;DHT22;10146;47.754;9.566;2022-10-23T14:23:29;16.70;99.90
19970;DHT22;10146;47.754;9.566;2022-10-23T14:26:01;16.60;99.90
19970;DHT22;10146;47.754;9.566;2022-10-23T14:28:27;16.50;99.90
19970;DHT22;10146;47.754;9.566;2022-10-23T14:30:52;16.60;99.90
19970;DHT22;10146;47.754;9.566;2022-10-23T14:33:18;16.70;99.90
19970;DHT22;10146;47.754;9.566;2022-10-23T14:35:43;16.70;99.90
19970;DHT22;10146;47.754;9.566;2022-10-23T14:38:09;16.60;99.90
19970;DHT22;10146;47.754;9.566;2022-10-23T14:40:38;16.50;99.90
19970;DHT22;10146;47.754;9.566;2022-10-23T14:43:04;16.40;99.90
19970;DHT22;10146;47.754;9.566;2022-10-23T14:45:30;16.30;99.90
19970;DHT22;10146;47.754;9.566;2022-10-23T14:47:55;16.20;99.90
19970;DHT22;10146;47.754;9.566;2022-10-23T14:50:21;16.10;99.90
19970;DHT22;10146;47.754;9.566;2022-10-23T14:52:47;16.10;99.90
19970;DHT22;10146;47.754;9.566;2022-10-23T14:55:12;16.10;99.90
19970;DHT22;10146;47.754;9.566;2022-10-23T14:57:38;16.10;99.90
19970;DHT22;10146;47.754;9.566;2022-10-23T15:00:05;16.10;99.90
19970;DHT22;10146;47.754;9.566;2022-10-23T15:02:30;16.10;99.90
19970;DHT22;10146;47.754;9.566;2022-10-23T15:04:56;16.00;99.90
19970;DHT22;10146;47.754;9.566;2022-10-23T15:07:22;16.00;99.90
19970;DHT22;10146;47.754;9.566;2022-10-23T15:09:47;16.00;99.90
19970;DHT22;10146;47.754;9.566;2022-10-23T15:12:15;16.00;99.90
19970;DHT22;10146;47.754;9.566;2022-10-23T15:14:40;16.10;99.90
19970;DHT22;10146;47.754;9.566;2022-10-23T15:17:06;16.10;99.90
19970;DHT22;10146;47.754;9.566;2022-10-23T15:19:31;15.90;99.90
19970;DHT22;10146;47.754;9.566;2022-10-23T15:21:57;15.90;99.90
19970;DHT22;10146;47.754;9.566;2022-10-23T15:24:23;15.90;99.90
19970;DHT22;10146;47.754;9.566;2022-10-23T15:26:48;15.80;99.90
19970;DHT22;10146;47.754;9.566;2022-10-23T15:29:16;15.80;99.90
19970;DHT22;10146;47.754;9.566;2022-10-23T15:31:48;15.70;99.90
19970;DHT22;10146;47.754;9.566;2022-10-23T15:34:22;15.70;99.90
19970;DHT22;10146;47.754;9.566;2022-10-23T15:36:49;15.70;99.90
19970;DHT22;10146;47.754;9.566;2022-10-23T15:39:18;15.70;99.90
19970;DHT22;10146;47.754;9.566;2022-10-23T15:41:44;15.60;99.90
19970;DHT22;10146;47.754;9.566;2022-10-23T15:44:13;15.60;99.90
19970;DHT22;10146;47.754;9.566;2022-10-23T15:46:39;15.60;99.90
19970;DHT22;10146;47.754;9.566;2022-10-23T15:49:05;15.50;99.90
19970;DHT22;10146;47.754;9.566;2022-10-23T15:51:32;15.40;99.90
19970;DHT22;10146;47.754;9.566;2022-10-23T15:53:58;15.40;99.90
19970;DHT22;10146;47.754;9.566;2022-10-23T15:56:24;15.30;99.90
19970;DHT22;10146;47.754;9.566;2022-10-23T15:58:50;15.30;99.90
19970;DHT22;10146;47.754;9.566;2022-10-23T16:01:16;15.30;99.90
19970;DHT22;10146;47.754;9.566;2022-10-23T16:03:41;15.30;99.90
19970;DHT22;10146;47.754;9.566;2022-10-23T16:06:09;15.30;99.90
19970;DHT22;10146;47.754;9.566;2022-10-23T16:08:36;15.30;99.90
19970;DHT22;10146;47.754;9.566;2022-10-23T16:11:03;15.20;99.90
19970;DHT22;10146;47.754;9.566;2022-10-23T16:13:28;15.20;99.90
19970;DHT22;10146;47.754;9.566;2022-10-23T16:15:54;15.10;99.90
19970;DHT22;10146;47.754;9.566;2022-10-23T16:18:21;15.10;99.90
19970;DHT22;10146;47.754;9.566;2022-10-23T16:20:47;15.10;99.90
19970;DHT22;10146;47.754;9.566;2022-10-23T16:23:15;15.10;99.90
19970;DHT22;10146;47.754;9.566;2022-10-23T16:25:41;15.10;99.90
19970;DHT22;10146;47.754;9.566;2022-10-23T16:28:06;15.00;99.90
19970;DHT22;10146;47.754;9.566;2022-10-23T16:30:32;14.90;99.90
19970;DHT22;10146;47.754;9.566;2022-10-23T16:32:58;14.90;99.90
19970;DHT22;10146;47.754;9.566;2022-10-23T16:35:23;14.80;99.90
19970;DHT22;10146;47.754;9.566;2022-10-23T16:37:49;14.70;99.90
19970;DHT22;10146;47.754;9.566;2022-10-23T16:40:14;14.80;99.90
19970;DHT22;10146;47.754;9.566;2022-10-23T16:42:40;14.70;99.90
19970;DHT22;10146;47.754;9.566;2022-10-23T16:45:07;14.60;99.90
19970;DHT22;10146;47.754;9.566;2022-10-23T16:47:33;14.60;99.90
19970;DHT22;10146;47.754;9.566;2022-10-23T16:49:59;14.50;99.90
19970;DHT22;10146;47.754;9.566;2022-10-23T16:52:26;14.40;99.90
19970;DHT22;10146;47.754;9.566;2022-10-23T16:54:52;14.40;99.90
19970;DHT22;10146;47.754;9.566;2022-10-23T16:57:18;14.30;99.90
19970;DHT22;10146;47.754;9.566;2022-10-23T16:59:44;14.20;99.90
19970;DHT22;10146;47.754;9.566;2022-10-23T17:02:10;14.30;99.90
19970;DHT22;10146;47.754;9.566;2022-10-23T17:04:36;14.30;99.90
19970;DHT22;10146;47.754;9.566;2022-10-23T17:07:04;14.20;99.90
19970;DHT22;10146;47.754;9.566;2022-10-23T17:09:29;14.10;99.90
19970;DHT22;10146;47.754;9.566;2022-10-23T17:11:56;14.10;99.90
19970;DHT22;10146;47.754;9.566;2022-10-23T17:14:23;14.00;99.90
19970;DHT22;10146;47.754;9.566;2022-10-23T17:16:57;14.00;99.90
19970;DHT22;10146;47.754;9.566;2022-10-23T17:19:25;14.00;99.90
19970;DHT22;10146;47.754;9.566;2022-10-23T17:21:51;13.90;99.90
19970;DHT22;10146;47.754;9.566;2022-10-23T17:24:16;13.90;99.90
19970;DHT22;10146;47.754;9.566;2022-10-23T17:26:42;13.90;99.90
19970;DHT22;10146;47.754;9.566;2022-10-23T17:29:10;13.90;99.90
19970;DHT22;10146;47.754;9.566;2022-10-23T17:31:40;13.90;99.90
19970;DHT22;10146;47.754;9.566;2022-10-23T17:34:09;13.80;99.90
19970;DHT22;10146;47.754;9.566;2022-10-23T17:36:39;13.80;99.90
19970;DHT22;10146;47.754;9.566;2022-10-23T17:39:06;13.90;99.90
19970;DHT22;10146;47.754;9.566;2022-10-23T17:41:33;13.90;99.90
19970;DHT22;10146;47.754;9.566;2022-10-23T17:43:59;13.90;99.90
19970;DHT22;10146;47.754;9.566;2022-10-23T17:46:26;13.90;99.90
19970;DHT22;10146;47.754;9.566;2022-10-23T17:48:52;13.80;99.90
19970;DHT22;10146;47.754;9.566;2022-10-23T17:51:22;13.80;99.90
19970;DHT22;10146;47.754;9.566;2022-10-23T17:53:50;13.80;99.90
19970;DHT22;10146;47.754;9.566;2022-10-23T17:56:25;13.80;99.90